Time;durP1;ratioP1;P1;durP2;ratioP2;P2;SDS_P1;SDS_P2;PMS_P1;PMS_P2;Temp;Humidity;BMP_temperature;BMP_pressure;BME280_temperature;BME280_humidity;BME280_pressure;Samples;Min_cycle;Max_cycle;Signal;HPM_P1;HPM_P2
2023/07/18 00:00:17;;;;;;;6.85;3.40;;;13.40;99.90;;;-144.05;77.86;56855.22;5053834;28;20108;-85
2023/07/18 00:02:46;;;;;;;7.80;3.63;;;13.30;99.90;;;-144.05;77.87;56857.34;5054319;28;20017;-87
2023/07/18 00:05:13;;;;;;;7.60;3.38;;;13.30;99.90;;;-144.05;77.88;56880.69;5036460;28;20064;-88
2023/07/18 00:07:41;;;;;;;9.65;3.55;;;13.30;99.90;;;-144.05;77.93;56874.31;5053310;28;20032;-89
2023/07/18 00:10:09;;;;;;;8.82;3.58;;;13.30;99.90;;;-144.05;78.45;56870.06;5076743;22;20067;-84
2023/07/18 00:12:38;;;;;;;6.18;3.67;;;13.20;99.90;;;-144.05;78.63;56870.06;5070032;28;20024;-84
2023/07/18 00:15:06;;;;;;;8.23;3.67;;;13.10;99.90;;;-144.05;78.79;56882.81;5071257;28;20029;-86
2023/07/18 00:17:33;;;;;;;8.02;3.70;;;13.10;99.90;;;-144.05;78.62;56876.44;5070136;28;20032;-87
2023/07/18 00:20:08;;;;;;;4.90;3.00;;;13.10;99.90;;;-144.05;78.68;56867.94;5070636;28;20029;-82
2023/07/18 00:22:35;;;;;;;8.85;3.75;;;13.20;99.90;;;-144.05;78.48;56901.94;5070196;28;20021;-83
2023/07/18 00:25:01;;;;;;;5.78;3.40;;;13.10;99.90;;;-144.05;78.46;56876.44;5070315;28;20507;-84
2023/07/18 00:27:28;;;;;;;6.57;3.22;;;13.10;99.90;;;-144.05;78.58;56880.69;5069777;28;20036;-83
2023/07/18 00:29:57;;;;;;;8.90;3.65;;;13.10;99.90;;;-144.05;78.95;56872.19;5053467;28;20457;-85
2023/07/18 00:32:23;;;;;;;5.15;3.58;;;13.10;99.90;;;-144.05;79.33;56861.56;5053809;28;20579;-84
2023/07/18 00:34:50;;;;;;;5.63;3.33;;;13.10;99.90;;;-144.05;79.55;56857.34;5056540;28;20059;-86
2023/07/18 00:37:17;;;;;;;9.63;4.28;;;13.10;99.90;;;-144.05;79.95;56863.69;5075953;28;20056;-84
2023/07/18 00:39:42;;;;;;;10.13;3.67;;;13.10;99.90;;;-144.05;80.04;56887.06;5057291;28;20042;-84
2023/07/18 00:42:08;;;;;;;7.95;3.40;;;13.10;99.90;;;-144.05;80.05;56876.44;5056656;28;20379;-84
2023/07/18 00:44:34;;;;;;;9.20;3.45;;;13.10;99.90;;;-144.05;80.04;56889.19;5056471;28;20025;-85
2023/07/18 00:47:01;;;;;;;6.35;3.85;;;13.10;99.90;;;-144.05;80.02;56865.81;5056668;28;20021;-82
2023/07/18 00:49:28;;;;;;;7.53;3.55;;;13.10;99.90;;;-144.05;79.80;56876.44;5073789;28;20025;-84
2023/07/18 00:51:56;;;;;;;6.57;3.67;;;13.10;99.90;;;-144.05;80.19;56857.34;5073285;28;20028;-84
2023/07/18 00:54:22;;;;;;;6.40;3.65;;;13.10;99.90;;;-144.05;79.72;56870.06;5073593;28;20028;-84
2023/07/18 00:56:48;;;;;;;9.00;3.70;;;13.10;99.90;;;-144.05;79.49;56882.81;5056763;28;20036;-83
2023/07/18 00:59:17;;;;;;;6.78;3.65;;;13.10;99.90;;;-144.05;79.21;56887.06;5056656;28;20405;-83
2023/07/18 01:01:43;;;;;;;5.57;3.45;;;13.20;99.90;;;-144.05;79.35;56857.34;5056542;28;20033;-84
2023/07/18 01:04:10;;;;;;;8.10;4.20;;;13.20;99.90;;;-144.05;79.41;56859.47;5072996;28;20033;-84
2023/07/18 01:06:37;;;;;;;6.47;3.67;;;13.10;99.90;;;-144.05;79.20;56874.31;5057295;28;20112;-83
2023/07/18 01:09:05;;;;;;;7.28;3.58;;;13.10;99.90;;;-144.05;79.23;56872.19;5056208;28;20115;-82
2023/07/18 01:11:32;;;;;;;6.85;3.70;;;13.10;99.90;;;-144.05;79.55;56865.81;5056083;28;20033;-84
2023/07/18 01:13:58;;;;;;;6.25;3.80;;;13.10;99.90;;;-144.05;79.52;56882.81;5055966;28;20098;-82
2023/07/18 01:16:25;;;;;;;5.03;3.45;;;13.10;99.90;;;-144.05;79.76;56901.94;5072697;28;20533;-82
2023/07/18 01:18:52;;;;;;;6.05;3.47;;;13.10;99.90;;;-144.05;79.48;56882.81;5055899;28;20037;-83
2023/07/18 01:21:22;;;;;;;7.57;3.40;;;13.10;99.90;;;-144.05;79.61;56882.81;5056048;28;20059;-82
2023/07/18 01:23:49;;;;;;;7.70;3.97;;;13.10;99.90;;;-144.05;79.30;56867.94;5055677;28;20036;-83
2023/07/18 01:26:15;;;;;;;7.05;3.40;;;13.10;99.90;;;-144.05;79.14;56872.19;5067688;28;20024;-83
2023/07/18 01:28:42;;;;;;;5.00;3.30;;;13.10;99.90;;;-144.05;79.16;56865.81;5052758;28;20032;-83
2023/07/18 01:31:09;;;;;;;5.00;3.30;;;13.00;99.90;;;-144.05;79.17;56861.56;5052770;28;20123;-83
2023/07/18 01:33:35;;;;;;;8.43;4.10;;;13.00;99.90;;;-144.05;79.25;56882.81;5035852;28;20032;-86
2023/07/18 01:36:01;;;;;;;5.57;3.70;;;13.00;99.90;;;-144.05;79.26;56889.19;5055009;28;20044;-83
2023/07/18 01:38:29;;;;;;;7.55;3.30;;;13.00;99.90;;;-144.05;79.13;56887.06;5064210;28;20040;-84
2023/07/18 01:41:01;;;;;;;6.28;3.08;;;13.00;99.90;;;-144.05;79.20;56878.56;5035911;28;20029;-84
2023/07/18 01:43:28;;;;;;;5.57;3.55;;;12.90;99.90;;;-144.05;79.18;56865.81;5035728;28;20478;-82
2023/07/18 01:46:00;;;;;;;5.88;3.35;;;12.80;99.90;;;-144.05;79.55;56865.81;5034921;28;20033;-82
2023/07/18 01:48:26;;;;;;;9.82;3.97;;;12.80;99.90;;;-144.05;79.48;56840.34;5052369;28;20029;-85
2023/07/18 01:50:53;;;;;;;5.03;2.97;;;12.70;99.90;;;-144.05;79.61;56882.81;5052423;28;20039;-83
2023/07/18 01:53:20;;;;;;;4.75;2.85;;;12.70;99.90;;;-144.05;79.61;56859.47;5037507;28;20051;-84
2023/07/18 01:55:45;;;;;;;6.22;2.88;;;12.60;99.90;;;-144.05;79.81;56904.06;5035111;28;20397;-85
2023/07/18 01:58:11;;;;;;;5.78;3.53;;;12.50;99.90;;;-144.05;80.02;56887.06;5035520;28;20035;-86
2023/07/18 02:00:37;;;;;;;4.05;3.13;;;12.50;99.90;;;-144.05;80.61;56880.69;5055473;28;20063;-86
2023/07/18 02:03:05;;;;;;;6.60;3.15;;;12.40;99.90;;;-144.05;80.69;56899.81;5066979;28;20028;-83
2023/07/18 02:05:32;;;;;;;5.43;3.42;;;12.40;99.90;;;-144.05;81.18;56887.06;5076457;28;20025;-84
2023/07/18 02:07:58;;;;;;;6.57;2.95;;;12.40;99.90;;;-144.05;81.03;56861.56;5059614;28;20025;-82
2023/07/18 02:10:26;;;;;;;7.35;3.72;;;12.30;99.90;;;-144.05;81.19;56906.19;5035176;28;20028;-84
2023/07/18 02:12:57;;;;;;;6.90;3.17;;;12.30;99.90;;;-144.05;81.54;56865.81;5035187;28;20086;-83
2023/07/18 02:15:23;;;;;;;7.60;3.28;;;12.20;99.90;;;-144.05;81.53;56874.31;5051777;28;20446;-83
2023/07/18 02:17:51;;;;;;;10.35;3.80;;;12.20;99.90;;;-144.05;81.77;56874.31;5034874;28;20067;-84
2023/07/18 02:20:17;;;;;;;5.97;3.30;;;12.20;99.90;;;-144.05;81.89;56874.31;5051434;28;20028;-84
2023/07/18 02:22:47;;;;;;;4.00;2.83;;;12.20;99.90;;;-144.05;81.99;56865.81;5051385;28;20028;-84
2023/07/18 02:25:17;;;;;;;6.57;2.97;;;12.10;99.90;;;-144.05;81.79;56872.19;5034708;28;20366;-83
2023/07/18 02:27:44;;;;;;;6.15;3.03;;;12.00;99.90;;;-144.05;82.02;56865.81;5034711;28;20486;-84
2023/07/18 02:30:14;;;;;;;7.47;3.50;;;11.90;99.90;;;-144.05;82.16;56867.94;5051076;28;20036;-83
2023/07/18 02:32:43;;;;;;;4.90;2.97;;;11.90;99.90;;;-144.05;82.41;56887.06;5034681;28;20112;-84
2023/07/18 02:35:11;;;;;;;5.93;3.15;;;11.90;99.90;;;-144.05;82.33;56887.06;5035812;28;20029;-84
2023/07/18 02:37:38;;;;;;;8.45;3.60;;;11.80;99.90;;;-144.05;82.52;56876.44;5035457;28;20074;-85
2023/07/18 02:40:09;;;;;;;6.63;3.35;;;11.80;99.90;;;-144.05;82.57;56848.84;5034567;28;20112;-84
2023/07/18 02:42:36;;;;;;;4.32;2.92;;;11.70;99.90;;;-144.05;82.69;56878.56;5034463;28;20029;-82
2023/07/18 02:45:02;;;;;;;5.30;3.17;;;11.70;99.90;;;-144.05;82.97;56889.19;5034339;28;20436;-82
2023/07/18 02:47:28;;;;;;;7.07;3.67;;;11.70;99.90;;;-144.05;83.25;56889.19;5034336;28;20029;-84
2023/07/18 02:49:54;;;;;;;5.75;3.83;;;11.70;99.90;;;-144.05;83.17;56895.56;5051404;28;20071;-84
2023/07/18 02:52:20;;;;;;;7.05;3.33;;;11.70;99.90;;;-144.05;83.30;56891.31;5034670;28;20106;-84
2023/07/18 02:54:46;;;;;;;7.15;3.35;;;11.60;99.90;;;-144.05;83.14;56882.81;5050861;28;20480;-83
2023/07/18 02:57:12;;;;;;;6.35;3.92;;;11.70;99.90;;;-144.05;83.34;56884.94;5034325;28;20043;-84
2023/07/18 02:59:38;;;;;;;6.40;3.33;;;11.70;99.90;;;-144.05;83.33;56891.31;5035811;28;20480;-82
2023/07/18 03:02:05;;;;;;;6.05;3.72;;;11.60;99.90;;;-144.05;83.49;56904.06;5051198;28;20545;-82
2023/07/18 03:04:31;;;;;;;7.32;3.97;;;11.60;99.90;;;-144.05;83.52;56880.69;5034122;28;20106;-83
2023/07/18 03:06:57;;;;;;;8.00;3.45;;;11.70;99.90;;;-144.05;83.62;56891.31;5034535;28;20025;-83
2023/07/18 03:09:23;;;;;;;8.25;4.43;;;11.70;99.90;;;-144.05;83.96;56897.69;5052302;28;20029;-83
2023/07/18 03:11:49;;;;;;;8.93;3.70;;;11.70;99.90;;;-144.05;83.99;56904.06;5034383;28;20021;-84
2023/07/18 03:14:20;;;;;;;8.40;4.28;;;11.70;99.90;;;-144.05;84.15;56865.81;5050390;28;20028;-83
2023/07/18 03:16:47;;;;;;;12.18;3.80;;;11.60;99.90;;;-144.05;84.29;56876.44;5034092;28;20230;-83
2023/07/18 03:19:14;;;;;;;4.88;3.60;;;11.60;99.90;;;-144.05;84.74;56880.69;5052466;28;20032;-84
2023/07/18 03:21:40;;;;;;;6.00;3.97;;;11.60;99.90;;;-144.05;85.10;56870.06;5034900;28;20417;-84
2023/07/18 03:24:10;;;;;;;8.88;3.90;;;11.60;99.90;;;-144.05;84.95;56836.09;5034520;28;20029;-84
2023/07/18 03:26:38;;;;;;;7.88;4.45;;;11.60;99.90;;;-144.05;84.72;56904.06;5035518;28;20033;-86
2023/07/18 03:29:06;;;;;;;9.15;4.97;;;11.70;99.90;;;-144.05;84.64;56861.56;5052257;28;20028;-83
2023/07/18 03:31:33;;;;;;;6.90;3.92;;;11.80;99.90;;;-144.05;84.81;56878.56;5045886;28;20044;-83
2023/07/18 03:34:00;;;;;;;6.57;4.00;;;11.80;99.90;;;-144.05;85.12;56880.69;5050246;28;20033;-83
2023/07/18 03:36:27;;;;;;;7.00;3.85;;;11.80;99.90;;;-144.05;85.07;56855.22;5050189;28;20112;-82
2023/07/18 03:38:53;;;;;;;10.77;4.63;;;11.80;99.90;;;-144.05;84.56;56884.94;5033914;28;20032;-84
2023/07/18 03:41:19;;;;;;;6.90;4.05;;;11.80;99.90;;;-144.05;84.61;56857.34;5033597;28;20072;-82
2023/07/18 03:43:46;;;;;;;11.55;4.85;;;11.80;99.90;;;-144.05;84.27;56884.94;5033441;28;20056;-83
2023/07/18 03:46:12;;;;;;;8.90;4.05;;;11.80;99.90;;;-144.05;84.27;56876.44;5034138;28;20021;-83
2023/07/18 03:48:38;;;;;;;7.80;4.00;;;11.90;99.90;;;-144.05;84.19;56901.94;5034255;28;20028;-84
2023/07/18 03:51:05;;;;;;;10.23;4.00;;;11.90;99.90;;;-144.05;84.05;56876.44;5038066;28;20025;-84
2023/07/18 03:53:32;;;;;;;6.60;4.03;;;11.90;99.90;;;-144.05;84.26;56870.06;5063165;28;20021;-84
2023/07/18 03:56:06;;;;;;;9.30;4.25;;;11.90;99.90;;;-144.05;84.02;56874.31;5055880;28;20114;-83
2023/07/18 03:58:33;;;;;;;9.23;4.43;;;11.90;99.90;;;-144.05;84.06;56870.06;5050021;28;20051;-84
2023/07/18 04:01:08;;;;;;;8.15;4.05;;;12.00;99.90;;;-144.05;84.14;56848.84;5033552;28;20353;-83
2023/07/18 04:03:36;;;;;;;7.25;4.28;;;11.90;99.90;;;-144.05;84.20;56889.19;5050524;28;20171;-85
2023/07/18 04:06:02;;;;;;;7.13;4.20;;;12.00;99.90;;;-144.05;84.06;56870.06;5036832;28;20033;-85
2023/07/18 04:08:29;;;;;;;7.78;3.83;;;12.00;99.90;;;-144.05;84.03;56850.97;5036215;28;20025;-82
2023/07/18 04:11:00;;;;;;;8.27;3.83;;;12.00;99.90;;;-144.05;83.81;56878.56;5040880;28;20127;-82
2023/07/18 04:13:26;;;;;;;8.30;4.30;;;12.10;99.90;;;-144.05;83.76;56876.44;5057198;28;20056;-85
2023/07/18 04:15:54;;;;;;;8.07;4.60;;;12.20;99.90;;;-144.05;83.33;56895.56;5056862;28;20086;-83
2023/07/18 04:18:21;;;;;;;12.10;4.70;;;12.20;99.90;;;-144.05;83.19;56870.06;5057363;28;20083;-83
2023/07/18 04:20:49;;;;;;;10.60;4.32;;;12.30;99.90;;;-144.05;82.82;56880.69;5041586;28;20025;-82
2023/07/18 04:23:16;;;;;;;10.23;5.00;;;12.50;99.90;;;-144.05;82.01;56874.31;5042840;28;20057;-84
2023/07/18 04:26:05;;;;;;;7.65;3.83;;;12.60;99.90;;;-144.05;81.81;56884.94;5056670;28;20078;-83
2023/07/18 04:28:36;;;;;;;8.73;3.85;;;12.70;99.90;;;-144.05;81.12;56850.97;5039290;28;20108;-84
2023/07/18 04:31:03;;;;;;;10.95;4.82;;;12.90;99.90;;;-144.05;80.30;56872.19;5039700;28;20545;-84
2023/07/18 04:33:38;;;;;;;7.78;4.00;;;13.00;99.90;;;-144.05;79.65;56876.44;5039641;28;20091;-84
2023/07/18 04:36:07;;;;;;;9.43;4.10;;;13.10;99.90;;;-144.05;79.25;56880.69;5056490;28;20044;-84
2023/07/18 04:38:37;;;;;;;9.95;4.32;;;13.20;99.90;;;-144.05;78.73;56880.69;5041267;28;20047;-84
2023/07/18 04:41:04;;;;;;;13.48;5.38;;;13.30;99.90;;;-144.05;78.41;56867.94;5057469;28;20025;-84
2023/07/18 04:43:30;;;;;;;7.13;3.45;;;13.40;99.90;;;-144.05;77.94;56882.81;5056442;28;20036;-84
2023/07/18 04:45:56;;;;;;;9.32;4.03;;;13.50;99.90;;;-144.05;77.32;56897.69;5040877;28;20305;-83
2023/07/18 04:48:22;;;;;;;9.55;4.15;;;13.60;99.90;;;-144.05;77.02;56872.19;5040305;28;20499;-82
2023/07/18 04:50:58;;;;;;;9.13;3.90;;;13.60;99.90;;;-144.05;76.91;56874.31;5040324;28;20120;-84
2023/07/18 04:53:31;;;;;;;8.43;3.80;;;13.70;99.90;;;-144.05;76.31;56874.31;5056523;28;20028;-84
2023/07/18 04:55:57;;;;;;;14.15;4.10;;;13.70;99.90;;;-144.05;76.12;56863.69;5039671;28;20037;-83
2023/07/18 04:58:27;;;;;;;7.30;4.15;;;13.90;99.90;;;-144.05;75.94;56880.69;5039604;28;20377;-83
2023/07/18 05:00:56;;;;;;;6.55;3.88;;;14.00;99.90;;;-144.05;74.98;56870.06;5039644;28;20056;-82
2023/07/18 05:03:24;;;;;;;9.10;4.68;;;14.20;99.90;;;-144.05;74.27;56865.81;5056693;28;20523;-83
2023/07/18 05:05:51;;;;;;;5.97;3.78;;;14.30;99.90;;;-144.05;73.76;56884.94;5039811;28;20400;-84
2023/07/18 05:08:18;;;;;;;10.43;3.80;;;14.50;99.90;;;-144.05;72.84;56870.06;5040453;28;20025;-84
2023/07/18 05:10:44;;;;;;;10.18;4.45;;;14.60;99.90;;;-144.05;72.31;56882.81;5040281;28;20025;-84
2023/07/18 05:13:10;;;;;;;9.57;3.92;;;14.70;99.90;;;-144.05;71.93;56876.44;5039248;28;20021;-84
2023/07/18 05:15:36;;;;;;;9.63;3.67;;;14.80;99.90;;;-144.05;71.72;56882.81;5039616;28;20055;-84
2023/07/18 05:18:03;;;;;;;9.18;3.67;;;14.90;99.90;;;-144.05;70.85;56882.81;5038851;28;20025;-84
2023/07/18 05:20:32;;;;;;;7.40;3.65;;;15.00;99.90;;;-144.05;70.36;56893.44;5055110;28;20393;-85
2023/07/18 05:22:58;;;;;;;7.25;3.00;;;15.10;99.90;;;-144.05;69.44;56872.19;5060070;28;20021;-84
2023/07/18 05:25:24;;;;;;;8.68;3.75;;;15.30;99.90;;;-144.05;69.09;56895.56;5045174;28;20049;-82
2023/07/18 05:27:50;;;;;;;6.90;3.53;;;15.40;99.90;;;-144.05;68.55;56861.56;5055058;28;20037;-84
2023/07/18 05:30:19;;;;;;;7.63;3.40;;;15.50;99.90;;;-144.05;67.70;56882.81;5038723;28;20028;-83
2023/07/18 05:32:51;;;;;;;6.75;3.25;;;15.70;99.90;;;-144.05;67.98;56880.69;5055554;28;20065;-84
2023/07/18 05:35:17;;;;;;;5.03;3.20;;;15.80;99.90;;;-144.05;67.32;56878.56;5055356;28;20056;-84
2023/07/18 05:37:44;;;;;;;7.18;3.25;;;15.90;99.90;;;-144.05;66.53;56897.69;5055190;28;20504;-83
2023/07/18 05:40:12;;;;;;;8.30;3.08;;;16.00;99.90;;;-144.05;65.87;56865.81;5039026;28;20156;-82
2023/07/18 05:42:44;;;;;;;5.85;3.22;;;16.10;99.90;;;-144.05;65.32;56878.56;5055693;28;20101;-84
2023/07/18 05:45:10;;;;;;;8.15;3.20;;;16.20;99.90;;;-144.05;65.01;56867.94;5055702;28;20056;-84
2023/07/18 05:47:37;;;;;;;6.18;3.83;;;16.30;99.90;;;-144.05;64.55;56884.94;5038293;28;20381;-83
2023/07/18 05:50:06;;;;;;;4.20;2.80;;;16.40;99.90;;;-144.05;64.21;56895.56;5037947;28;20036;-83
2023/07/18 05:52:34;;;;;;;6.38;2.53;;;16.60;99.90;;;-144.05;63.35;56865.81;5044441;28;20025;-84
2023/07/18 05:55:02;;;;;;;5.95;3.25;;;16.60;99.90;;;-144.05;62.66;56893.44;5050893;28;20033;-85
2023/07/18 05:57:28;;;;;;;8.10;2.95;;;16.80;99.90;;;-144.05;63.66;56897.69;5040872;28;20040;-84
2023/07/18 05:59:53;;;;;;;6.80;3.35;;;16.90;99.90;;;-144.05;61.42;56846.72;5041487;28;20124;-83
2023/07/18 06:02:21;;;;;;;8.27;3.22;;;17.10;99.90;;;-144.05;61.47;56880.69;5042632;28;20063;-85
2023/07/18 06:04:47;;;;;;;6.30;3.20;;;17.30;99.90;;;-144.05;61.33;56908.31;5046656;28;20032;-84
2023/07/18 06:07:13;;;;;;;8.60;3.45;;;17.40;99.90;;;-144.05;60.31;56880.69;5060516;28;20025;-83
2023/07/18 06:09:39;;;;;;;10.68;2.75;;;17.70;99.90;;;-144.05;59.98;56908.31;5049936;28;20041;-83
2023/07/18 06:12:07;;;;;;;6.88;2.90;;;17.80;99.90;;;-144.05;58.87;56872.19;5055597;28;20035;-84
2023/07/18 06:14:34;;;;;;;6.80;2.85;;;17.90;99.90;;;-144.05;58.36;56878.56;5038150;28;20029;-86
2023/07/18 06:17:00;;;;;;;5.60;2.80;;;18.00;99.90;;;-144.05;58.51;56895.56;5037754;28;20109;-82
2023/07/18 06:19:26;;;;;;;7.07;2.63;;;18.10;99.90;;;-144.05;57.83;56882.81;5055005;28;20575;-83
2023/07/18 06:21:53;;;;;;;8.68;3.05;;;18.30;99.90;;;-144.05;56.72;56880.69;5038484;28;20033;-82
2023/07/18 06:24:19;;;;;;;6.70;3.05;;;18.50;99.90;;;-144.05;56.55;56884.94;5056155;28;20025;-84
2023/07/18 06:26:49;;;;;;;5.05;2.28;;;18.60;99.90;;;-144.05;55.98;56887.06;5064729;28;20017;-83
2023/07/18 06:29:18;;;;;;;5.45;3.08;;;18.70;99.90;;;-144.05;56.16;56867.94;5057824;28;20028;-85
2023/07/18 06:31:48;;;;;;;5.57;2.53;;;18.80;99.90;;;-144.05;55.73;56893.44;5057146;28;20028;-82
2023/07/18 06:34:19;;;;;;;6.40;3.20;;;19.00;99.90;;;-144.05;55.10;56904.06;5057481;28;20051;-83
2023/07/18 06:36:45;;;;;;;4.10;2.38;;;19.00;99.90;;;-144.05;54.83;56901.94;5057763;28;20035;-85
2023/07/18 06:39:11;;;;;;;8.00;3.08;;;19.10;99.90;;;-144.05;54.51;56925.28;5074148;28;20033;-85
2023/07/18 06:41:38;;;;;;;5.97;2.58;;;19.20;99.90;;;-144.05;53.80;56912.56;5056615;28;20433;-85
2023/07/18 06:44:07;;;;;;;6.57;3.03;;;19.40;99.90;;;-144.05;53.03;56901.94;5074558;28;20036;-84
2023/07/18 06:46:33;;;;;;;6.90;2.60;;;19.70;99.90;;;-144.05;52.19;56923.19;5074771;28;20048;-85
2023/07/18 06:48:59;;;;;;;4.80;2.47;;;19.90;99.90;;;-144.05;51.45;56910.44;5056374;28;20441;-85
2023/07/18 06:51:25;;;;;;;5.85;2.78;;;20.00;99.90;;;-144.05;53.08;56901.94;5073073;28;20039;-86
2023/07/18 06:53:52;;;;;;;4.63;2.22;;;19.90;99.90;;;-144.05;52.15;56921.06;5056062;28;20167;-86
2023/07/18 06:56:18;;;;;;;6.00;2.67;;;20.20;99.90;;;-144.05;51.51;56908.31;5075799;28;20384;-83
2023/07/18 06:58:44;;;;;;;5.28;2.83;;;20.20;99.90;;;-144.05;51.01;56910.44;5075835;28;20039;-85
2023/07/18 07:01:12;;;;;;;7.18;3.03;;;20.20;99.90;;;-144.05;51.50;56918.94;5075383;28;20059;-86
2023/07/18 07:03:38;;;;;;;5.60;2.42;;;20.20;99.90;;;-144.05;51.02;56884.94;5057201;28;20025;-82
2023/07/18 07:06:12;;;;;;;6.13;2.60;;;20.30;99.90;;;-144.05;50.84;56916.81;5075748;28;20025;-87
2023/07/18 07:08:38;;;;;;;4.30;2.22;;;20.40;99.90;;;-144.05;51.06;56929.53;5074169;28;20029;-86
2023/07/18 07:11:08;;;;;;;3.85;2.60;;;20.60;99.90;;;-144.05;50.56;56938.03;5078612;28;20082;-89
2023/07/18 07:13:37;;;;;;;4.10;2.40;;;21.00;99.90;;;-144.05;49.46;56918.94;5095175;28;20031;-84
2023/07/18 07:16:04;;;;;;;7.47;2.25;;;21.20;99.90;;;-144.05;48.82;56950.78;5064407;28;20062;-84
2023/07/18 07:18:31;;;;;;;4.20;2.15;;;21.20;99.90;;;-144.05;48.13;56938.03;5075111;28;20024;-86
2023/07/18 07:20:57;;;;;;;4.47;1.83;;;21.30;99.90;;;-144.05;47.96;56950.78;5057772;28;20031;-82
2023/07/18 07:23:23;;;;;;;4.78;2.10;;;21.60;99.90;;;-144.05;45.30;56942.28;5076490;28;20033;-82
2023/07/18 07:25:49;;;;;;;4.32;1.85;;;21.80;99.90;;;-144.05;45.08;56942.28;5074118;28;20131;-84
2023/07/18 07:28:15;;;;;;;5.10;2.40;;;22.10;99.90;;;-144.05;44.02;56957.16;5075835;28;20039;-82
2023/07/18 07:30:41;;;;;;;7.22;2.05;;;22.40;99.90;;;-144.05;43.50;56969.91;5057984;28;20094;-85
2023/07/18 07:33:07;;;;;;;4.18;2.17;;;22.30;99.90;;;-144.05;44.75;56967.78;5057300;28;20440;-86
2023/07/18 07:35:33;;;;;;;7.63;2.03;;;22.30;99.90;;;-144.05;44.07;56969.91;5057041;28;20040;-86
2023/07/18 07:37:59;;;;;;;5.93;1.70;;;22.60;99.90;;;-144.05;43.13;56969.91;5074777;28;20024;-85
2023/07/18 07:40:25;;;;;;;3.67;2.10;;;22.80;99.90;;;-144.05;42.54;56967.78;5057237;28;20452;-85
2023/07/18 07:42:51;;;;;;;4.53;1.92;;;23.00;99.90;;;-144.05;42.53;56972.03;5075511;28;20113;-85
2023/07/18 07:45:17;;;;;;;4.20;1.60;;;22.80;99.90;;;-144.05;41.72;56944.41;5060181;28;20062;-83
2023/07/18 07:47:43;;;;;;;4.03;2.10;;;22.70;99.90;;;-144.05;42.61;56942.28;5061365;28;20040;-84
2023/07/18 07:50:12;;;;;;;6.07;1.90;;;22.40;99.90;;;-144.05;43.58;56961.41;5078472;28;20484;-86
2023/07/18 07:52:38;;;;;;;4.07;1.98;;;22.50;99.90;;;-144.05;41.65;56974.16;5060888;28;20025;-82
2023/07/18 07:55:06;;;;;;;4.93;1.77;;;22.70;99.90;;;-144.05;41.33;56976.28;5061593;28;20021;-83
2023/07/18 07:57:32;;;;;;;4.53;1.67;;;23.10;99.90;;;-144.05;40.55;56997.50;5077432;28;20039;-86
2023/07/18 07:59:58;;;;;;;3.00;1.63;;;23.30;99.90;;;-144.05;39.31;56984.78;5060413;28;20024;-87
2023/07/18 08:02:23;;;;;;;4.70;1.73;;;23.30;99.90;;;-144.05;38.52;56997.50;5077789;28;20464;-86
2023/07/18 08:04:49;;;;;;;3.47;1.30;;;23.50;99.90;;;-144.05;38.64;56993.25;5059569;28;20412;-84
2023/07/18 08:07:16;;;;;;;6.15;1.45;;;23.50;99.90;;;-144.05;37.08;57003.88;5077985;28;20043;-86
2023/07/18 08:09:43;;;;;;;4.38;1.60;;;23.90;99.90;;;-144.05;36.82;57008.13;5059863;28;20721;-84
2023/07/18 08:12:12;;;;;;;3.38;1.10;;;24.00;99.90;;;-144.05;37.67;56995.38;5059032;28;20491;-85
2023/07/18 08:14:38;;;;;;;4.85;1.65;;;23.90;99.90;;;-144.05;38.19;56993.25;5059152;28;20029;-85
2023/07/18 08:17:06;;;;;;;6.97;1.95;;;23.90;99.90;;;-144.05;38.51;56997.50;5077028;28;20440;-84
2023/07/18 08:19:33;;;;;;;4.13;1.75;;;23.70;99.90;;;-144.05;37.54;56980.53;5076819;28;20028;-86
2023/07/18 08:22:03;;;;;;;4.70;1.88;;;23.50;99.90;;;-144.05;38.56;56976.28;5075940;28;20039;-85
2023/07/18 08:24:30;;;;;;;4.18;1.55;;;23.40;99.90;;;-144.05;38.78;56972.03;5077712;28;20563;-85
2023/07/18 08:26:58;;;;;;;3.80;1.38;;;23.40;99.90;;;-144.05;37.21;56991.13;5048874;28;20033;-84
2023/07/18 08:29:27;;;;;;;3.80;1.35;;;23.70;99.90;;;-144.05;35.85;56986.91;5056314;28;20033;-84
2023/07/18 08:31:54;;;;;;;3.70;1.27;;;23.60;99.90;;;-144.05;36.61;57018.75;5039220;28;20033;-87
2023/07/18 08:34:21;;;;;;;3.85;1.58;;;23.80;99.90;;;-144.05;38.23;57003.88;5038407;28;20037;-86
2023/07/18 08:36:47;;;;;;;3.00;1.40;;;23.90;99.90;;;-144.05;36.97;57023.00;5055999;28;20033;-86
2023/07/18 08:39:15;;;;;;;3.80;2.03;;;24.40;99.90;;;-144.05;36.13;57044.25;5055955;28;20657;-85
2023/07/18 08:41:49;;;;;;;1.88;1.17;;;24.60;99.90;;;-144.05;35.94;57029.38;5057458;28;20025;-85
2023/07/18 08:44:17;;;;;;;6.25;1.95;;;24.80;99.90;;;-144.05;34.96;57023.00;5056836;28;20029;-85
2023/07/18 08:46:48;;;;;;;3.83;1.50;;;24.70;99.60;;;-144.05;34.40;57031.50;5039773;28;20029;-85
2023/07/18 08:49:17;;;;;;;1.83;1.20;;;24.80;99.10;;;-144.05;34.50;57056.97;5040142;28;20021;-84
2023/07/18 08:51:48;;;;;;;3.30;1.30;;;24.80;99.50;;;-144.05;35.55;57042.13;5040646;28;20039;-86
2023/07/18 08:54:14;;;;;;;2.72;1.38;;;25.00;99.90;;;-144.05;34.83;57035.75;5041404;28;20033;-84
2023/07/18 08:56:42;;;;;;;8.52;1.70;;;24.90;98.70;;;-144.05;35.39;57018.75;5058134;28;20029;-85
2023/07/18 08:59:09;;;;;;;2.13;1.33;;;24.80;98.70;;;-144.05;34.94;57035.75;5059943;28;20550;-84
2023/07/18 09:01:35;;;;;;;4.20;1.40;;;24.80;98.70;;;-144.05;35.44;57020.88;5059236;28;20124;-88
2023/07/18 09:04:01;;;;;;;6.15;1.48;;;24.90;99.50;;;-144.05;33.47;57044.25;5056665;28;20052;-79
2023/07/18 09:06:28;;;;;;;3.55;1.65;;;25.30;96.80;;;-144.05;33.33;57067.59;5067965;28;20037;-86
2023/07/18 09:08:58;;;;;;;3.88;1.30;;;25.40;96.70;;;-144.05;33.03;57061.22;5056187;28;20485;-84
2023/07/18 09:11:24;;;;;;;3.65;1.05;;;25.80;96.30;;;-144.05;32.40;57054.88;5039638;28;20120;-87
2023/07/18 09:13:50;;;;;;;2.33;1.15;;;25.90;94.60;;;-144.05;32.54;57084.59;5056636;28;20056;-84
2023/07/18 09:16:22;;;;;;;2.30;1.02;;;26.20;95.70;;;-144.05;31.91;57078.22;5039669;28;20025;-86
2023/07/18 09:18:54;;;;;;;2.13;1.23;;;26.10;93.30;;;-144.05;31.51;57101.59;5040140;28;20060;-85
2023/07/18 09:21:23;;;;;;;4.47;1.27;;;26.10;93.60;;;-144.05;31.63;57080.34;5040606;28;20485;-83
2023/07/18 09:23:51;;;;;;;2.72;1.10;;;26.10;92.90;;;-144.05;32.64;57052.75;5040594;28;20416;-85
2023/07/18 09:26:21;;;;;;;2.90;1.10;;;25.90;94.00;;;-144.05;30.92;57059.09;5062711;28;20033;-84
2023/07/18 09:28:51;;;;;;;3.63;1.00;;;25.70;90.40;;;-144.05;31.58;57065.47;5060760;28;20043;-81
2023/07/18 09:31:23;;;;;;;3.65;0.90;;;25.60;91.00;;;-144.05;31.17;57076.09;5060801;28;20029;-81
2023/07/18 09:33:54;;;;;;;4.38;1.02;;;25.90;90.50;;;-144.05;29.87;57073.97;5077768;28;20472;-83
2023/07/18 09:36:24;;;;;;;2.65;0.80;;;25.90;86.70;;;-144.05;30.49;57076.09;5061284;28;20028;-84
2023/07/18 09:38:51;;;;;;;3.58;0.95;;;25.70;87.40;;;-144.05;31.06;57044.25;5060720;28;20024;-86
2023/07/18 09:41:21;;;;;;;3.22;1.10;;;25.60;88.10;;;-144.05;31.34;57048.50;5079005;28;20138;-85
2023/07/18 09:43:47;;;;;;;3.38;1.15;;;25.70;88.60;;;-144.05;31.78;57033.63;5061530;28;20029;-86
2023/07/18 09:46:16;;;;;;;5.75;1.00;;;25.30;88.20;;;-144.05;32.53;57012.38;5061263;28;20029;-83
2023/07/18 09:48:45;;;;;;;3.40;1.00;;;24.70;88.00;;;-144.05;32.28;57016.63;5060764;28;20029;-87
2023/07/18 09:51:20;;;;;;;2.38;1.10;;;24.70;89.60;;;-144.05;31.71;57029.38;5061769;28;20025;-88
2023/07/18 09:53:48;;;;;;;2.90;1.23;;;24.70;88.50;;;-144.05;31.77;57035.75;5061987;28;20115;-84
2023/07/18 09:56:16;;;;;;;2.10;0.90;;;25.10;89.10;;;-144.05;31.58;57016.63;5061971;28;20607;-87
2023/07/18 09:58:46;;;;;;;3.28;1.10;;;25.30;88.50;;;-144.05;31.12;57050.63;5065085;28;20086;-87
2023/07/18 10:01:20;;;;;;;3.78;1.48;;;25.30;86.10;;;-144.05;31.02;57054.88;5090227;28;20036;-80
2023/07/18 10:04:09;;;;;;;2.72;1.20;;;25.30;86.50;;;-144.05;30.87;57065.47;5097572;28;20033;-75
2023/07/18 10:06:36;;;;;;;1.58;1.05;;;25.50;85.70;;;-144.05;31.27;57031.50;5059425;28;20099;-85